createdAt,value
2018-06-29T00:00:03.542Z,65.00
2018-06-29T00:02:32.034Z,65.00
2018-06-29T00:05:00.643Z,65.00
2018-06-29T00:07:29.384Z,65.00
2018-06-29T00:09:57.870Z,64.90
2018-06-29T00:12:26.359Z,65.00
2018-06-29T00:14:54.869Z,64.90
2018-06-29T00:17:23.308Z,64.90
2018-06-29T00:19:51.816Z,64.90
2018-06-29T00:22:20.333Z,64.90
2018-06-29T00:24:49.518Z,64.90
2018-06-29T00:27:17.994Z,64.90
2018-06-29T00:29:46.508Z,64.90
2018-06-29T00:32:15.745Z,64.40
2018-06-29T00:34:44.294Z,64.90
2018-06-29T00:37:12.782Z,64.80
2018-06-29T00:39:41.891Z,64.80
2018-06-29T00:42:10.390Z,64.80
2018-06-29T00:44:38.863Z,64.90
2018-06-29T00:47:07.378Z,64.80
2018-06-29T00:49:35.899Z,64.80
2018-06-29T00:52:06.392Z,64.80
2018-06-29T00:54:36.470Z,64.80
2018-06-29T00:57:05.595Z,65.40
2018-06-29T00:59:34.070Z,64.70
2018-06-29T01:02:02.618Z,64.70
2018-06-29T01:04:31.086Z,64.70
2018-06-29T01:11:56.126Z,65.10
2018-06-29T01:14:24.605Z,65.40
2018-06-29T01:16:53.089Z,65.40
2018-06-29T01:19:21.610Z,65.10
2018-06-29T01:21:50.088Z,65.20
2018-06-29T01:24:18.715Z,65.30
2018-06-29T01:26:47.180Z,65.00
2018-06-29T01:29:15.627Z,65.20
2018-06-29T01:31:45.408Z,65.20
2018-06-29T01:34:13.872Z,65.30
2018-06-29T01:36:42.393Z,65.30
2018-06-29T01:39:11.019Z,65.20
2018-06-29T01:41:39.481Z,65.20
2018-06-29T01:44:07.934Z,65.50
2018-06-29T01:46:36.409Z,65.60
2018-06-29T01:49:05.698Z,65.60
2018-06-29T01:51:34.997Z,65.90
2018-06-29T01:54:03.665Z,65.80
2018-06-29T01:56:32.237Z,66.20
2018-06-29T01:59:00.951Z,66.30
2018-06-29T02:01:29.438Z,66.20
2018-06-29T02:03:57.930Z,66.30
2018-06-29T02:06:26.649Z,66.50
2018-06-29T02:08:55.118Z,67.20
2018-06-29T02:11:23.877Z,67.20
2018-06-29T02:13:52.723Z,66.80
2018-06-29T02:16:21.281Z,66.90
2018-06-29T02:18:49.761Z,67.00
2018-06-29T02:21:18.257Z,66.90
2018-06-29T02:23:46.733Z,67.10
2018-06-29T02:26:15.286Z,67.00
2018-06-29T02:28:43.937Z,67.10
2018-06-29T02:31:12.399Z,67.20
2018-06-29T02:33:40.865Z,67.20
2018-06-29T02:36:09.324Z,67.20
2018-06-29T02:38:37.835Z,67.30
2018-06-29T02:41:06.759Z,67.40
2018-06-29T02:46:03.546Z,67.40
2018-06-29T02:48:32.087Z,67.40
2018-06-29T02:53:28.930Z,67.90
2018-06-29T02:55:57.466Z,68.00
2018-06-29T02:58:25.895Z,67.60
2018-06-29T03:00:54.627Z,68.30
2018-06-29T03:03:23.081Z,68.40
2018-06-29T03:05:51.754Z,67.50
2018-06-29T03:08:20.261Z,68.90
2018-06-29T03:13:17.036Z,68.40
2018-06-29T03:15:45.494Z,68.40
2018-06-29T03:20:42.251Z,68.90
2018-06-29T03:23:10.743Z,68.40
2018-06-29T03:25:39.426Z,68.40
2018-06-29T03:30:36.160Z,68.40
2018-06-29T03:33:04.731Z,68.50
2018-06-29T03:35:33.145Z,68.50
2018-06-29T03:38:01.631Z,68.50
2018-06-29T03:40:30.151Z,68.60
2018-06-29T03:45:26.784Z,68.50
2018-06-29T03:47:55.922Z,68.50
2018-06-29T03:50:24.376Z,68.50
2018-06-29T03:52:52.941Z,68.50
2018-06-29T03:55:21.439Z,68.40
2018-06-29T03:57:51.045Z,68.50
2018-06-29T04:00:19.693Z,68.50
2018-06-29T04:02:48.180Z,68.70
2018-06-29T04:05:16.966Z,68.70
2018-06-29T04:07:46.439Z,68.80
2018-06-29T04:10:14.913Z,68.90
2018-06-29T04:12:43.434Z,68.20
2018-06-29T04:17:40.285Z,67.80
2018-06-29T04:20:08.810Z,67.70
2018-06-29T04:22:37.297Z,67.20
2018-06-29T04:25:06.562Z,67.20
2018-06-29T04:27:35.110Z,66.80
2018-06-29T04:30:04.304Z,66.60
2018-06-29T04:32:32.762Z,66.70
2018-06-29T04:35:01.282Z,66.60
2018-06-29T04:39:57.993Z,65.50
2018-06-29T04:42:26.482Z,65.50
2018-06-29T04:44:55.514Z,65.20
2018-06-29T04:47:23.979Z,65.10
2018-06-29T04:49:52.677Z,65.20
2018-06-29T04:52:21.123Z,65.30
2018-06-29T04:54:49.654Z,65.30
2018-06-29T04:57:18.802Z,64.70
2018-06-29T04:59:47.259Z,65.00
2018-06-29T05:02:15.801Z,64.80
2018-06-29T05:04:44.372Z,64.70
2018-06-29T05:07:12.846Z,64.50
2018-06-29T05:09:41.362Z,64.00
2018-06-29T05:12:09.915Z,63.90
2018-06-29T05:14:40.244Z,64.10
2018-06-29T05:17:08.685Z,64.10
2018-06-29T05:19:37.192Z,63.80
2018-06-29T05:22:06.118Z,63.70
2018-06-29T05:24:34.643Z,63.90
2018-06-29T05:27:03.227Z,63.90
2018-06-29T05:29:31.875Z,64.20
2018-06-29T05:32:00.359Z,64.30
2018-06-29T05:34:28.821Z,64.20
2018-06-29T05:36:57.391Z,64.70
2018-06-29T05:39:25.875Z,65.00
2018-06-29T05:41:55.071Z,65.00
2018-06-29T05:44:23.539Z,65.00
2018-06-29T05:46:52.109Z,65.00
2018-06-29T05:49:20.671Z,65.00
2018-06-29T05:51:49.790Z,65.20
2018-06-29T05:54:18.263Z,64.70
2018-06-29T05:56:47.289Z,64.10
2018-06-29T05:59:15.871Z,63.70
2018-06-29T06:01:44.438Z,63.20
2018-06-29T06:04:12.893Z,63.00
2018-06-29T06:06:41.399Z,63.00
2018-06-29T06:09:11.576Z,62.70
2018-06-29T06:11:40.837Z,62.40
2018-06-29T06:14:09.365Z,62.50
2018-06-29T06:16:37.810Z,62.20
2018-06-29T06:21:40.087Z,61.80
2018-06-29T06:24:08.962Z,61.90
2018-06-29T06:26:37.455Z,61.90
2018-06-29T06:29:06.290Z,62.00
2018-06-29T06:31:35.051Z,62.00
2018-06-29T06:34:03.586Z,62.00
2018-06-29T06:36:32.411Z,62.10
2018-06-29T06:39:00.930Z,62.20
2018-06-29T06:41:29.842Z,62.10
2018-06-29T06:43:58.320Z,62.10
2018-06-29T06:46:26.805Z,61.70
2018-06-29T06:48:55.301Z,61.70
2018-06-29T06:51:23.754Z,61.30
2018-06-29T06:53:52.242Z,61.00
2018-06-29T06:56:20.720Z,61.00
2018-06-29T06:58:49.445Z,61.00
2018-06-29T07:01:17.902Z,60.90
2018-06-29T07:03:46.423Z,60.80
2018-06-29T07:06:15.869Z,60.80
2018-06-29T07:08:44.364Z,60.70
2018-06-29T07:11:13.004Z,60.40
2018-06-29T07:13:41.527Z,60.40
2018-06-29T07:16:10.027Z,60.20
2018-06-29T07:18:38.703Z,60.20
2018-06-29T07:21:07.202Z,59.70
2018-06-29T07:23:35.733Z,60.00
2018-06-29T07:26:04.417Z,59.50
2018-06-29T07:28:33.266Z,59.70
2018-06-29T07:31:01.785Z,59.10
2018-06-29T07:33:30.243Z,59.10
2018-06-29T07:35:58.913Z,58.90
2018-06-29T07:38:30.569Z,58.50
2018-06-29T07:40:59.315Z,58.60
2018-06-29T07:43:27.841Z,58.40
2018-06-29T07:45:57.588Z,57.80
2018-06-29T07:48:27.557Z,57.60
2018-06-29T07:50:56.146Z,57.60
2018-06-29T07:53:25.094Z,57.70
2018-06-29T07:55:53.713Z,57.70
2018-06-29T07:58:22.978Z,57.80
2018-06-29T08:00:51.418Z,57.80
2018-06-29T08:03:19.920Z,57.90
2018-06-29T08:05:48.525Z,57.60
2018-06-29T08:08:17.110Z,56.70
2018-06-29T08:10:46.153Z,56.90
2018-06-29T08:13:14.626Z,56.70
2018-06-29T08:15:43.096Z,56.60
2018-06-29T08:18:12.682Z,56.10
2018-06-29T08:20:41.437Z,55.90
2018-06-29T08:23:09.995Z,55.40
2018-06-29T08:25:38.506Z,55.60
2018-06-29T08:28:07.047Z,55.10
2018-06-29T08:30:35.530Z,54.50
2018-06-29T08:33:04.042Z,54.50
2018-06-29T08:35:32.598Z,54.10
2018-06-29T08:38:01.114Z,53.80
2018-06-29T08:40:29.594Z,54.00
2018-06-29T08:42:58.138Z,53.60
2018-06-29T08:45:26.666Z,53.40
2018-06-29T08:47:55.329Z,53.50
2018-06-29T08:50:23.834Z,53.60
2018-06-29T08:52:52.350Z,52.30
2018-06-29T08:55:20.795Z,52.10
2018-06-29T08:57:49.334Z,52.00
2018-06-29T09:00:17.818Z,52.00
2018-06-29T09:02:46.326Z,52.00
2018-06-29T09:07:43.098Z,52.10
2018-06-29T09:10:11.538Z,52.20
2018-06-29T09:12:40.045Z,52.30
2018-06-29T09:15:08.514Z,52.00
2018-06-29T09:17:37.022Z,50.40
2018-06-29T09:20:05.537Z,50.60
2018-06-29T09:22:36.280Z,49.80
2018-06-29T09:25:04.780Z,49.50
2018-06-29T09:27:33.428Z,49.30
2018-06-29T09:30:01.978Z,48.80
2018-06-29T09:32:30.794Z,49.50
2018-06-29T09:35:00.574Z,49.80
2018-06-29T09:37:29.174Z,49.30
2018-06-29T09:39:57.654Z,48.90
2018-06-29T09:42:26.435Z,48.10
2018-06-29T09:44:54.898Z,47.60
2018-06-29T09:47:23.420Z,47.20
2018-06-29T09:49:51.908Z,47.00
2018-06-29T09:52:20.527Z,46.10
2018-06-29T09:54:49.780Z,46.30
2018-06-29T09:57:19.080Z,45.30
2018-06-29T09:59:48.460Z,44.90
2018-06-29T10:02:16.985Z,45.20
2018-06-29T10:04:46.258Z,46.10
2018-06-29T10:07:14.922Z,45.20
2018-06-29T10:09:43.411Z,45.90
2018-06-29T10:12:11.922Z,45.30
2018-06-29T10:14:40.425Z,46.20
2018-06-29T10:17:08.926Z,45.30
2018-06-29T10:19:37.652Z,45.30
2018-06-29T10:22:06.199Z,45.20
2018-06-29T10:24:34.742Z,46.00
2018-06-29T10:27:03.295Z,45.90
2018-06-29T10:29:31.783Z,46.00
2018-06-29T10:32:00.425Z,46.40
2018-06-29T10:34:28.970Z,45.20
2018-06-29T10:36:57.445Z,46.90
2018-06-29T10:39:25.937Z,46.10
2018-06-29T10:41:54.424Z,46.40
2018-06-29T10:44:22.933Z,47.00
2018-06-29T10:46:51.415Z,46.90
2018-06-29T10:49:19.997Z,47.00
2018-06-29T10:51:48.495Z,46.90
2018-06-29T10:54:20.774Z,46.70
2018-06-29T10:59:17.743Z,46.40
2018-06-29T11:01:46.305Z,45.30
2018-06-29T11:04:14.787Z,45.00
2018-06-29T11:06:43.331Z,45.20
2018-06-29T11:09:11.828Z,44.20
2018-06-29T11:11:40.272Z,43.30
2018-06-29T11:14:09.506Z,43.10
2018-06-29T11:16:38.014Z,42.30
2018-06-29T11:19:06.770Z,43.90
2018-06-29T11:21:36.170Z,44.30
2018-06-29T11:24:05.481Z,42.90
2018-06-29T11:26:33.931Z,43.40
2018-06-29T11:29:02.476Z,42.60
2018-06-29T11:31:30.950Z,42.20
2018-06-29T11:34:00.441Z,42.40
2018-06-29T11:36:28.920Z,42.40
2018-06-29T11:38:57.877Z,43.30
2018-06-29T11:41:26.386Z,44.10
2018-06-29T11:43:54.974Z,44.30
2018-06-29T11:46:23.478Z,44.80
2018-06-29T11:48:52.542Z,43.70
2018-06-29T11:51:21.095Z,44.10
2018-06-29T11:53:49.587Z,44.50
2018-06-29T11:56:18.163Z,43.80
2018-06-29T11:58:47.542Z,44.60
2018-06-29T12:03:44.590Z,44.60
2018-06-29T12:06:13.526Z,44.50
2018-06-29T12:08:42.182Z,44.50
2018-06-29T12:11:11.100Z,44.60
2018-06-29T12:13:39.963Z,44.60
2018-06-29T12:16:09.081Z,44.80
2018-06-29T12:18:37.737Z,44.60
2018-06-29T12:21:06.855Z,44.60
2018-06-29T12:23:35.302Z,44.70
2018-06-29T12:26:04.471Z,43.40
2018-06-29T12:28:32.969Z,45.60
2018-06-29T12:31:01.519Z,44.20
2018-06-29T12:33:29.983Z,44.10
2018-06-29T12:35:58.990Z,43.70
2018-06-29T12:38:27.474Z,43.60
2018-06-29T12:40:56.046Z,43.30
2018-06-29T12:43:24.573Z,43.00
2018-06-29T12:45:53.082Z,42.80
2018-06-29T12:50:50.331Z,42.00
2018-06-29T12:53:18.815Z,41.00
2018-06-29T12:55:47.389Z,39.40
2018-06-29T12:58:15.924Z,38.50
2018-06-29T13:00:44.533Z,36.60
2018-06-29T13:03:13.709Z,34.90
2018-06-29T13:05:43.030Z,33.90
2018-06-29T13:08:11.532Z,31.00
2018-06-29T13:10:40.014Z,30.30
2018-06-29T13:13:08.574Z,29.60
2018-06-29T13:15:37.053Z,29.70
2018-06-29T13:18:05.558Z,28.20
2018-06-29T13:20:34.062Z,28.30
2018-06-29T13:25:30.816Z,26.50
2018-06-29T13:27:59.390Z,26.20
2018-06-29T13:30:27.981Z,26.50
2018-06-29T13:32:56.525Z,25.10
2018-06-29T13:35:25.164Z,25.30
2018-06-29T13:37:53.711Z,23.90
2018-06-29T13:40:22.223Z,23.80
2018-06-29T13:42:50.840Z,23.70
2018-06-29T13:45:19.347Z,24.40
2018-06-29T13:47:48.787Z,24.40
2018-06-29T13:50:17.413Z,24.20
2018-06-29T13:52:45.889Z,24.00
2018-06-29T13:55:15.002Z,20.90
2018-06-29T13:57:43.514Z,21.50
2018-06-29T14:00:12.203Z,22.50
2018-06-29T14:02:41.002Z,22.90
2018-06-29T14:05:09.861Z,21.20
2018-06-29T14:07:38.338Z,21.50
2018-06-29T14:10:07.669Z,20.40
2018-06-29T14:12:36.151Z,19.90
2018-06-29T14:15:04.732Z,20.40
2018-06-29T14:17:33.264Z,19.70
2018-06-29T14:20:01.783Z,18.80
2018-06-29T14:22:30.327Z,18.20
2018-06-29T14:24:59.077Z,16.30
2018-06-29T14:27:27.594Z,17.80
2018-06-29T14:29:56.207Z,18.00
2018-06-29T14:32:24.691Z,17.50
2018-06-29T14:34:53.696Z,16.90
2018-06-29T14:37:22.314Z,17.30
2018-06-29T14:39:51.019Z,18.20
2018-06-29T14:42:19.539Z,18.00
2018-06-29T14:44:48.005Z,17.40
2018-06-29T14:47:16.602Z,17.20
2018-06-29T14:49:45.097Z,16.40
2018-06-29T14:52:13.602Z,15.50
2018-06-29T14:54:42.076Z,14.70
2018-06-29T14:57:10.643Z,13.20
2018-06-29T14:59:39.374Z,14.70
2018-06-29T15:02:07.886Z,14.10
2018-06-29T15:04:36.349Z,12.60
2018-06-29T15:07:06.861Z,12.60
2018-06-29T15:09:35.527Z,12.80
2018-06-29T15:12:04.046Z,13.10
2018-06-29T15:14:32.521Z,13.10
2018-06-29T15:17:01.097Z,13.50
2018-06-29T15:19:29.796Z,13.20
2018-06-29T15:21:58.509Z,11.90
2018-06-29T15:24:27.614Z,11.60
2018-06-29T15:26:56.258Z,10.90
2018-06-29T15:29:24.806Z,10.70
2018-06-29T15:31:53.407Z,10.20
2018-06-29T15:34:22.323Z,8.90
2018-06-29T15:36:50.799Z,9.00
2018-06-29T15:39:19.377Z,9.70
2018-06-29T15:41:48.799Z,11.50
2018-06-29T15:44:17.315Z,11.10
2018-06-29T15:46:45.779Z,11.90
2018-06-29T15:49:14.312Z,12.40
2018-06-29T15:51:42.986Z,11.60
2018-06-29T15:56:39.665Z,12.70
2018-06-29T15:59:08.220Z,13.90
2018-06-29T16:01:37.536Z,14.50
2018-06-29T16:04:06.770Z,11.30
2018-06-29T16:06:35.237Z,11.70
2018-06-29T16:09:05.994Z,11.80
2018-06-29T16:11:34.478Z,11.90
2018-06-29T16:14:04.151Z,11.20
2018-06-29T16:16:32.772Z,12.20
2018-06-29T16:19:02.166Z,12.80
2018-06-29T16:21:31.112Z,14.50
2018-06-29T16:23:59.665Z,15.50
2018-06-29T16:26:28.151Z,17.20
2018-06-29T16:28:56.682Z,18.60
2018-06-29T16:31:25.383Z,18.10
2018-06-29T16:33:53.894Z,19.70
2018-06-29T16:36:22.402Z,20.60
2018-06-29T16:38:50.934Z,21.20
2018-06-29T16:41:19.451Z,22.00
2018-06-29T16:43:47.969Z,23.50
2018-06-29T16:46:16.516Z,23.40
2018-06-29T16:48:45.058Z,23.70
2018-06-29T16:51:13.551Z,24.20
2018-06-29T16:53:41.976Z,24.50
2018-06-29T16:56:10.553Z,25.20
2018-06-29T16:58:39.062Z,25.60
2018-06-29T17:01:07.591Z,25.90
2018-06-29T17:03:36.059Z,26.00
2018-06-29T17:06:05.459Z,26.40
2018-06-29T17:08:33.914Z,26.80
2018-06-29T17:11:02.431Z,27.30
2018-06-29T17:13:31.031Z,27.20
2018-06-29T17:15:59.579Z,27.10
2018-06-29T17:18:28.078Z,27.00
2018-06-29T17:20:56.600Z,26.80
2018-06-29T17:23:25.106Z,27.00
2018-06-29T17:25:54.812Z,27.60
2018-06-29T17:28:23.266Z,27.90
2018-06-29T17:30:51.831Z,27.90
2018-06-29T17:33:32.046Z,28.20
2018-06-29T17:35:48.819Z,28.40
2018-06-29T17:38:17.433Z,28.80
2018-06-29T17:40:45.912Z,29.00
2018-06-29T17:43:14.451Z,29.40
2018-06-29T17:45:42.899Z,29.80
2018-06-29T17:48:11.450Z,30.00
2018-06-29T17:50:39.943Z,30.10
2018-06-29T17:53:08.478Z,30.60
2018-06-29T17:55:37.144Z,30.70
2018-06-29T17:58:05.870Z,31.00
2018-06-29T18:00:34.422Z,31.40
2018-06-29T18:03:02.939Z,32.00
2018-06-29T18:05:31.445Z,32.00
2018-06-29T18:07:59.951Z,32.00
2018-06-29T18:10:28.686Z,32.10
2018-06-29T18:12:57.292Z,32.70
2018-06-29T18:15:25.695Z,33.00
2018-06-29T18:17:54.210Z,32.90
2018-06-29T18:20:22.747Z,33.20
2018-06-29T18:22:51.381Z,33.60
2018-06-29T18:25:20.072Z,33.70
2018-06-29T18:27:48.804Z,34.00
2018-06-29T18:30:17.908Z,34.10
2018-06-29T18:32:47.009Z,34.40
2018-06-29T18:35:16.104Z,34.70
2018-06-29T18:37:45.124Z,34.90
2018-06-29T18:40:14.284Z,35.40
2018-06-29T18:42:43.382Z,36.80
2018-06-29T18:45:12.498Z,36.00
2018-06-29T18:47:41.572Z,36.40
2018-06-29T18:50:11.284Z,36.90
2018-06-29T18:52:40.385Z,37.30
2018-06-29T18:55:09.887Z,37.80
2018-06-29T18:57:38.944Z,38.20
2018-06-29T19:00:08.280Z,38.10
2018-06-29T19:02:37.373Z,38.00
2018-06-29T19:05:06.470Z,38.00
2018-06-29T19:07:35.565Z,37.90
2018-06-29T19:10:04.826Z,37.80
2018-06-29T19:12:34.398Z,37.70
2018-06-29T19:15:03.345Z,37.70
2018-06-29T19:17:32.162Z,37.70
2018-06-29T19:20:01.043Z,37.50
2018-06-29T19:22:29.905Z,37.50
2018-06-29T19:24:58.734Z,37.40
2018-06-29T19:29:56.400Z,37.90
2018-06-29T19:32:26.223Z,40.00
2018-06-29T19:34:55.368Z,41.70
2018-06-29T19:37:24.516Z,42.20
2018-06-29T19:39:54.987Z,42.80
2018-06-29T19:42:24.128Z,44.10
2018-06-29T19:44:53.435Z,44.20
2018-06-29T19:47:22.529Z,45.30
2018-06-29T19:49:51.607Z,45.40
2018-06-29T19:52:21.559Z,45.50
2018-06-29T19:54:50.425Z,46.50
2018-06-29T19:57:19.051Z,46.60
2018-06-29T19:59:48.016Z,47.40
2018-06-29T20:02:16.493Z,47.90
2018-06-29T20:04:45.177Z,48.70
2018-06-29T20:07:13.688Z,49.00
2018-06-29T20:09:42.746Z,50.50
2018-06-29T20:12:11.451Z,50.50
2018-06-29T20:14:40.204Z,50.40
2018-06-29T20:17:08.771Z,50.30
2018-06-29T20:19:37.393Z,50.20
2018-06-29T20:22:06.186Z,50.20
2018-06-29T20:24:34.873Z,50.60
2018-06-29T20:27:03.406Z,51.80
2018-06-29T20:29:32.498Z,50.80
2018-06-29T20:32:01.141Z,51.90
2018-06-29T20:34:29.822Z,52.20
2018-06-29T20:36:58.355Z,52.10
2018-06-29T20:39:26.881Z,52.40
2018-06-29T20:41:55.382Z,51.40
2018-06-29T20:44:24.091Z,52.70
2018-06-29T20:46:53.313Z,53.30
2018-06-29T20:49:22.345Z,52.90
2018-06-29T20:51:50.876Z,53.50
2018-06-29T20:54:19.678Z,54.00
2018-06-29T20:56:49.326Z,54.80
2018-06-29T20:59:17.972Z,53.20
2018-06-29T21:01:46.707Z,54.10
2018-06-29T21:04:15.235Z,53.60
2018-06-29T21:06:43.986Z,54.10
2018-06-29T21:09:13.267Z,54.30
2018-06-29T21:11:42.720Z,54.90
2018-06-29T21:16:40.243Z,56.00
2018-06-29T21:19:08.755Z,54.80
2018-06-29T21:21:38.533Z,55.70
2018-06-29T21:24:07.036Z,55.30
2018-06-29T21:26:35.907Z,55.90
2018-06-29T21:29:05.541Z,55.80
2018-06-29T21:31:34.831Z,55.80
2018-06-29T21:34:03.862Z,56.10
2018-06-29T21:39:01.472Z,56.30
2018-06-29T21:41:30.044Z,55.60
2018-06-29T21:43:58.512Z,56.40
2018-06-29T21:49:01.494Z,57.40
2018-06-29T21:51:30.546Z,57.60
2018-06-29T21:53:59.067Z,57.80
2018-06-29T21:56:27.617Z,57.20
2018-06-29T21:58:57.644Z,58.50
2018-06-29T22:01:26.283Z,57.60
2018-06-29T22:06:23.055Z,58.60
2018-06-29T22:08:51.583Z,59.40
2018-06-29T22:11:27.589Z,59.70
2018-06-29T22:13:56.131Z,59.30
2018-06-29T22:16:25.704Z,60.00
2018-06-29T22:18:54.252Z,59.00
2018-06-29T22:21:22.777Z,59.30
2018-06-29T22:23:53.503Z,59.00
2018-06-29T22:26:22.091Z,59.90
2018-06-29T22:28:50.647Z,60.80
2018-06-29T22:31:19.252Z,60.80
2018-06-29T22:33:48.065Z,60.80
2018-06-29T22:36:16.779Z,60.80
2018-06-29T22:38:46.151Z,60.70
2018-06-29T22:41:14.680Z,60.60
2018-06-29T22:43:43.370Z,60.60
2018-06-29T22:46:12.545Z,60.60
2018-06-29T22:48:41.083Z,60.50
2018-06-29T22:51:09.718Z,60.50
2018-06-29T22:53:38.692Z,60.50
2018-06-29T22:56:07.224Z,60.60
2018-06-29T22:58:36.242Z,60.80
2018-06-29T23:01:05.847Z,61.20
2018-06-29T23:04:06.921Z,61.70
2018-06-29T23:06:35.505Z,61.10
2018-06-29T23:09:06.252Z,61.90
2018-06-29T23:11:34.763Z,61.60
2018-06-29T23:14:03.486Z,61.40
2018-06-29T23:16:32.107Z,62.10
2018-06-29T23:19:01.216Z,62.00
2018-06-29T23:23:57.919Z,61.70
2018-06-29T23:26:26.406Z,62.40
2018-06-29T23:28:55.052Z,62.00
2018-06-29T23:31:23.536Z,62.30
2018-06-29T23:36:20.366Z,62.40
2018-06-29T23:38:48.821Z,61.90
2018-06-29T23:41:17.389Z,62.50
2018-06-29T23:43:46.094Z,62.70
2018-06-29T23:46:14.601Z,62.70
2018-06-29T23:48:43.078Z,62.50
2018-06-29T23:51:11.592Z,62.90
2018-06-29T23:53:40.120Z,62.90
2018-06-29T23:56:08.751Z,62.60
2018-06-29T23:58:37.280Z,62.60
